Time;durP1;ratioP1;P1;durP2;ratioP2;P2;SDS_P1;SDS_P2;PMS_P1;PMS_P2;Temp;Humidity;BMP_temperature;BMP_pressure;BME280_temperature;BME280_humidity;BME280_pressure;Samples;Min_cycle;Max_cycle;Signal;HPM_P1;HPM_P2
2021/03/19 00:01:55;;;;;;;4.20;3.03;;;;;;;23.26;34.78;94543.72;5003463;28;20121;-80
2021/03/19 00:04:20;;;;;;;4.82;3.10;;;;;;;23.28;35.26;94546.66;5028595;28;20025;-80
2021/03/19 00:06:46;;;;;;;4.18;2.90;;;;;;;23.27;35.60;94539.72;5026082;28;20026;-80
2021/03/19 00:09:11;;;;;;;4.70;3.45;;;;;;;23.25;35.19;94542.25;5027922;28;20025;-79
2021/03/19 00:11:37;;;;;;;5.22;3.05;;;;;;;23.24;35.03;94534.59;5002725;28;20133;-81
2021/03/19 00:14:03;;;;;;;5.03;3.10;;;;;;;23.21;35.54;94536.34;5017431;28;20084;-81
2021/03/19 00:16:29;;;;;;;3.80;3.00;;;;;;;23.20;35.08;94529.44;5013878;28;20032;-81
2021/03/19 00:18:54;;;;;;;4.00;3.40;;;;;;;23.20;35.26;94540.34;5014389;28;20030;-81
2021/03/19 00:21:20;;;;;;;4.20;3.08;;;;;;;23.18;35.34;94542.13;5014332;28;20037;-81
2021/03/19 00:23:45;;;;;;;4.72;3.40;;;;;;;23.19;35.49;94543.59;5014044;28;20487;-82
2021/03/19 00:26:11;;;;;;;4.47;3.25;;;;;;;22.97;34.96;94512.00;4995856;28;20028;-80
2021/03/19 00:28:36;;;;;;;4.65;3.28;;;;;;;23.13;35.01;94534.78;4996778;28;20025;-81
2021/03/19 00:31:01;;;;;;;4.40;3.20;;;;;;;23.21;35.14;94546.53;4997774;28;20021;-82
2021/03/19 00:33:27;;;;;;;4.53;3.33;;;;;;;22.96;35.05;94510.50;5015081;28;20030;-81
2021/03/19 00:35:52;;;;;;;4.32;3.22;;;;;;;23.16;35.47;94545.34;5014271;28;20029;-81
2021/03/19 00:38:18;;;;;;;4.22;3.03;;;;;;;23.15;35.20;94543.91;4980803;28;20503;-81
2021/03/19 00:40:43;;;;;;;4.88;3.83;;;;;;;23.13;35.33;94551.84;5014078;28;20033;-80
2021/03/19 00:43:10;;;;;;;4.32;3.08;;;;;;;23.06;35.24;94530.66;5014668;28;20052;-81
2021/03/19 00:45:35;;;;;;;4.30;3.08;;;;;;;23.00;35.48;94521.84;4996632;28;20028;-82
2021/03/19 00:48:01;;;;;;;4.78;3.38;;;;;;;22.75;35.50;94489.03;5032702;28;20022;-82
2021/03/19 00:50:30;;;;;;;4.60;3.28;;;;;;;22.90;35.20;94501.66;5016334;28;20029;-80
2021/03/19 00:52:56;;;;;;;4.15;3.00;;;;;;;23.00;35.50;94527.28;5033254;28;20026;-81
2021/03/19 00:55:21;;;;;;;3.92;3.13;;;;;;;22.55;35.20;94460.38;5016755;28;20025;-82
2021/03/19 00:57:47;;;;;;;4.00;3.20;;;;;;;23.06;35.27;94530.66;5032903;28;20040;-82
2021/03/19 01:00:13;;;;;;;4.30;3.28;;;;;;;23.05;35.32;94531.91;5016894;28;20040;-80
2021/03/19 01:02:39;;;;;;;4.28;3.17;;;;;;;22.88;35.49;94508.16;5033964;28;20046;-81
2021/03/19 01:05:07;;;;;;;4.13;3.00;;;;;;;23.00;35.17;94532.75;5032359;28;20040;-82
2021/03/19 01:07:32;;;;;;;3.78;3.20;;;;;;;22.94;35.21;94521.19;5033703;28;20600;-82
2021/03/19 01:09:58;;;;;;;4.30;3.20;;;;;;;22.70;35.38;94487.13;5032672;28;20053;-81
2021/03/19 01:12:23;;;;;;;3.88;2.90;;;;;;;22.98;35.35;94518.88;5033359;28;20036;-81
2021/03/19 01:14:48;;;;;;;4.25;3.38;;;;;;;23.02;35.23;94529.50;5033830;28;20552;-81
2021/03/19 01:17:14;;;;;;;4.07;2.90;;;;;;;23.03;35.43;94531.72;5034234;28;20030;-80
2021/03/19 01:19:40;;;;;;;3.85;2.97;;;;;;;22.84;35.10;94496.81;5037628;28;20083;-80
2021/03/19 01:22:06;;;;;;;5.15;3.60;;;;;;;23.00;35.47;94516.41;5036693;28;20052;-81
2021/03/19 01:24:31;;;;;;;4.38;3.28;;;;;;;23.00;35.55;94513.69;5036401;28;20092;-80
2021/03/19 01:26:57;;;;;;;3.95;2.70;;;;;;;22.98;35.35;94513.44;5035836;28;20028;-80
2021/03/19 01:29:22;;;;;;;4.35;3.28;;;;;;;22.33;35.03;94421.88;5015802;28;20060;-80
2021/03/19 01:31:48;;;;;;;4.32;3.17;;;;;;;22.62;35.32;94469.94;5015282;28;20017;-81
2021/03/19 01:34:13;;;;;;;4.45;3.10;;;;;;;22.95;35.34;94524.66;5032254;28;20112;-81
2021/03/19 01:36:39;;;;;;;4.40;3.30;;;;;;;22.94;35.22;94523.91;5032747;28;20395;-80
2021/03/19 01:39:05;;;;;;;4.10;3.22;;;;;;;22.97;35.35;94522.88;5015473;28;20025;-81
2021/03/19 01:41:30;;;;;;;4.10;2.90;;;;;;;22.96;35.40;94520.69;5032799;28;20030;-82
2021/03/19 01:44:05;;;;;;;4.65;3.08;;;;;;;22.95;35.45;94525.38;5032768;28;20033;-81
2021/03/19 01:47:08;;;;;;;4.53;3.08;;;;;;;22.95;35.43;94519.94;5033111;28;20033;-81
2021/03/19 01:50:10;;;;;;;3.75;3.13;;;;;;;22.95;35.53;94525.38;5033106;28;20619;-81
2021/03/19 01:53:13;;;;;;;4.13;3.10;;;;;;;22.91;35.33;94519.47;5032426;28;20057;-80
2021/03/19 01:56:16;;;;;;;4.35;3.13;;;;;;;22.90;35.29;94517.28;5032857;28;20025;-82
2021/03/19 01:59:19;;;;;;;4.55;3.00;;;;;;;22.90;35.32;94512.56;5032551;28;20025;-81
2021/03/19 02:02:21;;;;;;;5.00;3.17;;;;;;;22.92;35.29;94512.75;5032794;28;20025;-82
2021/03/19 02:05:24;;;;;;;4.07;3.00;;;;;;;22.93;35.21;94517.00;5032729;28;20036;-81
2021/03/19 02:08:27;;;;;;;4.10;3.10;;;;;;;22.93;35.57;94516.25;5032870;28;20100;-82
2021/03/19 02:11:30;;;;;;;3.72;2.97;;;;;;;22.91;35.33;94514.03;5032336;28;20493;-81
2021/03/19 02:14:33;;;;;;;3.75;2.90;;;;;;;22.89;35.24;94511.06;5032764;28;20033;-81
2021/03/19 02:17:35;;;;;;;3.55;3.03;;;;;;;22.88;35.46;94504.19;5031910;28;20057;-80
2021/03/19 02:20:38;;;;;;;4.32;3.20;;;;;;;22.88;35.33;94508.16;5032352;28;20025;-81
2021/03/19 02:23:41;;;;;;;4.30;3.17;;;;;;;22.87;35.36;94503.94;5032427;28;20034;-81
2021/03/19 02:26:43;;;;;;;4.35;3.40;;;;;;;22.88;35.48;94502.69;5032149;28;20052;-81
2021/03/19 02:29:48;;;;;;;4.38;3.22;;;;;;;22.88;35.62;94508.16;5031321;28;20084;-81
2021/03/19 02:32:15;;;;;;;4.40;3.47;;;;;;;22.86;35.26;94505.22;5030004;28;20041;-81
2021/03/19 02:34:52;;;;;;;4.10;3.08;;;;;;;22.87;35.55;94495.78;5022652;28;20064;-82
2021/03/19 02:37:20;;;;;;;4.43;2.90;;;;;;;22.85;35.38;94503.72;5030896;28;20025;-82
2021/03/19 02:39:46;;;;;;;4.03;2.90;;;;;;;22.83;35.49;94506.25;5030641;28;20024;-77
2021/03/19 02:42:12;;;;;;;4.40;3.20;;;;;;;22.78;35.33;94494.19;5014407;28;20112;-80
2021/03/19 02:44:38;;;;;;;3.47;2.80;;;;;;;22.86;35.58;94499.78;5031749;28;20104;-81
2021/03/19 02:47:03;;;;;;;3.75;2.90;;;;;;;22.78;35.38;94482.56;5032168;28;20106;-81
2021/03/19 02:49:29;;;;;;;3.55;2.90;;;;;;;22.86;35.23;94499.78;5035446;28;20391;-81
2021/03/19 02:51:55;;;;;;;4.15;3.33;;;;;;;22.85;35.27;94503.72;5037205;28;20029;-81
2021/03/19 02:54:21;;;;;;;3.90;3.03;;;;;;;22.86;35.16;94497.06;5035740;28;20025;-81
2021/03/19 02:56:46;;;;;;;4.53;3.08;;;;;;;22.82;35.62;94493.88;5036162;28;20060;-82
2021/03/19 02:59:12;;;;;;;3.85;2.80;;;;;;;22.82;35.33;94489.16;5036336;28;20033;-81
2021/03/19 03:01:38;;;;;;;4.43;2.90;;;;;;;22.84;35.29;94502.25;5035537;28;20037;-82
2021/03/19 03:04:03;;;;;;;3.83;2.80;;;;;;;22.82;35.23;94500.06;5035929;28;20029;-83
2021/03/19 03:06:42;;;;;;;4.05;3.45;;;;;;;22.56;35.60;94455.69;5035640;28;20033;-81
2021/03/19 03:09:10;;;;;;;3.88;2.85;;;;;;;22.73;35.53;94483.38;5034839;28;20044;-82
2021/03/19 03:11:36;;;;;;;4.05;2.90;;;;;;;22.78;35.62;94488.00;5017917;28;20049;-82
2021/03/19 03:14:04;;;;;;;3.90;3.08;;;;;;;22.83;35.25;94500.81;5036087;28;20026;-82
2021/03/19 03:16:30;;;;;;;4.13;3.10;;;;;;;22.83;35.21;94495.38;5035893;28;20059;-81
2021/03/19 03:18:55;;;;;;;4.28;2.88;;;;;;;22.83;35.42;94495.38;5017411;28;20029;-82
2021/03/19 03:21:21;;;;;;;3.30;2.78;;;;;;;22.80;35.18;94485.50;5034853;28;20029;-81
2021/03/19 03:23:46;;;;;;;3.90;3.00;;;;;;;22.82;35.38;94499.31;5035422;28;20029;-82
2021/03/19 03:26:12;;;;;;;4.65;2.85;;;;;;;22.48;35.21;94446.63;5036035;28;20026;-82
2021/03/19 03:28:37;;;;;;;4.53;3.05;;;;;;;22.79;35.22;94494.91;5035235;28;20418;-81
2021/03/19 03:31:03;;;;;;;3.67;2.95;;;;;;;22.33;35.36;94432.75;5000969;28;20021;-82
2021/03/19 03:33:28;;;;;;;4.13;2.75;;;;;;;22.77;35.52;94492.00;5017388;28;20029;-82
2021/03/19 03:35:54;;;;;;;3.92;3.10;;;;;;;22.77;35.14;94489.25;5035590;28;20021;-81
2021/03/19 03:38:23;;;;;;;4.03;2.92;;;;;;;22.79;35.49;94494.91;5000830;28;20056;-82
2021/03/19 03:40:52;;;;;;;3.50;2.70;;;;;;;22.67;35.25;94471.84;5034966;28;20056;-81
2021/03/19 03:43:18;;;;;;;4.43;2.90;;;;;;;22.81;35.54;94493.16;5016219;28;20080;-81
2021/03/19 03:45:43;;;;;;;4.25;3.25;;;;;;;22.58;35.29;94464.06;5033997;28;20029;-81
2021/03/19 03:48:10;;;;;;;3.40;2.60;;;;;;;22.81;35.36;94497.84;5017591;28;20123;-82
2021/03/19 03:50:35;;;;;;;3.60;2.55;;;;;;;22.78;35.48;94490.72;5035298;28;20486;-82
2021/03/19 03:53:01;;;;;;;4.00;2.75;;;;;;;22.78;35.38;94498.88;5017133;28;20028;-81
2021/03/19 03:55:26;;;;;;;3.63;2.83;;;;;;;22.78;35.46;94488.00;5034815;28;20025;-81
2021/03/19 03:57:52;;;;;;;3.50;2.80;;;;;;;22.40;35.39;94432.16;5017250;28;20163;-82
2021/03/19 04:00:21;;;;;;;3.63;2.83;;;;;;;22.75;35.17;94500.66;5032875;28;20037;-82
2021/03/19 04:02:46;;;;;;;3.55;2.80;;;;;;;22.41;35.15;94449.97;5034954;28;20029;-82
2021/03/19 04:05:26;;;;;;;2.90;2.40;;;;;;;22.77;35.13;94502.88;5000433;28;20048;-82
2021/03/19 04:07:52;;;;;;;3.95;2.90;;;;;;;22.78;35.17;94498.88;5018638;28;20068;-82
2021/03/19 04:10:19;;;;;;;3.40;2.58;;;;;;;22.77;35.29;94502.88;5016019;28;20057;-81
2021/03/19 04:12:44;;;;;;;4.47;2.90;;;;;;;22.77;35.37;94505.59;5017161;28;20464;-82
2021/03/19 04:15:10;;;;;;;3.17;2.50;;;;;;;22.74;35.22;94512.81;5016957;28;20041;-82
2021/03/19 04:17:36;;;;;;;3.10;2.58;;;;;;;22.56;35.16;94488.34;5028937;28;20123;-82
2021/03/19 04:20:03;;;;;;;3.95;2.92;;;;;;;22.62;35.32;94516.19;5016681;28;20434;-82
2021/03/19 04:22:28;;;;;;;3.65;2.85;;;;;;;22.56;35.46;94515.53;5034535;28;20489;-82
2021/03/19 04:24:54;;;;;;;3.97;3.33;;;;;;;22.53;35.60;94516.56;5000639;28;20040;-82
2021/03/19 04:27:21;;;;;;;3.50;2.72;;;;;;;22.32;35.59;94480.25;5034620;28;20030;-82
2021/03/19 04:29:47;;;;;;;4.60;3.03;;;;;;;22.31;35.68;94473.31;5000533;28;20025;-82
2021/03/19 04:32:13;;;;;;;3.53;2.80;;;;;;;22.56;35.54;94515.53;5015968;28;20028;-82
2021/03/19 04:34:38;;;;;;;4.57;2.90;;;;;;;22.50;35.62;94520.31;5033890;28;20029;-82
2021/03/19 04:37:05;;;;;;;3.33;2.58;;;;;;;22.49;35.42;94516.84;5034091;28;20413;-82
2021/03/19 04:39:32;;;;;;;4.07;3.10;;;;;;;22.51;35.56;94513.63;5016502;28;20083;-82
2021/03/19 04:41:58;;;;;;;3.80;2.75;;;;;;;22.59;35.46;94519.97;5034167;28;20021;-83
2021/03/19 04:44:25;;;;;;;3.40;2.53;;;;;;;22.62;35.20;94529.81;5016319;28;20037;-82
2021/03/19 04:46:51;;;;;;;3.08;2.28;;;;;;;22.61;35.37;94520.16;5034177;28;20124;-82
2021/03/19 04:49:17;;;;;;;3.45;2.72;;;;;;;22.63;35.45;94520.38;5034025;28;20088;-82
2021/03/19 04:51:42;;;;;;;3.97;2.63;;;;;;;22.60;35.40;94515.97;5000429;28;20018;-82
2021/03/19 04:54:08;;;;;;;3.17;2.47;;;;;;;22.64;35.39;94519.13;5015685;28;20033;-81
2021/03/19 04:56:34;;;;;;;3.38;2.67;;;;;;;22.66;35.49;94524.78;5034568;28;20018;-82
2021/03/19 04:58:59;;;;;;;3.50;2.55;;;;;;;22.67;35.74;94520.81;5016694;28;20089;-82
2021/03/19 05:01:25;;;;;;;3.78;2.70;;;;;;;22.68;35.31;94516.88;5008814;28;20022;-85
2021/03/19 05:03:50;;;;;;;3.30;2.60;;;;;;;22.63;35.19;94514.94;5020556;28;20018;-80
2021/03/19 05:06:16;;;;;;;3.35;2.50;;;;;;;22.70;35.60;94525.25;5015140;28;20521;-80
2021/03/19 05:08:42;;;;;;;3.17;2.60;;;;;;;22.71;35.51;94526.72;5033894;28;20037;-77
2021/03/19 05:11:07;;;;;;;3.63;2.65;;;;;;;22.25;35.65;94459.06;5023858;28;20091;-78
2021/03/19 05:13:33;;;;;;;2.75;2.30;;;;;;;22.70;35.85;94519.78;5029999;28;20033;-81
2021/03/19 05:15:59;;;;;;;4.20;2.53;;;;;;;22.75;35.67;94532.56;5005779;28;20018;-82
2021/03/19 05:18:24;;;;;;;4.32;2.65;;;;;;;22.78;35.73;94531.53;5008799;28;20052;-81
2021/03/19 05:20:50;;;;;;;3.42;2.65;;;;;;;22.76;35.73;94523.16;5026738;28;20104;-82
2021/03/19 05:23:23;;;;;;;3.50;2.60;;;;;;;22.88;35.77;94535.38;5031369;28;20486;-76
2021/03/19 05:25:49;;;;;;;3.08;2.30;;;;;;;22.87;35.30;94520.28;5027828;28;20554;-86
2021/03/19 05:28:14;;;;;;;5.88;4.38;;;;;;;22.60;29.79;94499.63;5030938;28;20387;-82
2021/03/19 05:30:40;;;;;;;4.40;3.10;;;;;;;22.65;32.70;94515.16;5016143;28;20530;-85
2021/03/19 05:33:06;;;;;;;3.45;2.88;;;;;;;22.92;34.22;94537.28;5026457;28;20017;-88
2021/03/19 05:35:31;;;;;;;4.28;3.00;;;;;;;22.90;34.62;94522.72;5031528;28;20029;-85
2021/03/19 05:37:57;;;;;;;3.20;2.53;;;;;;;22.98;34.19;94508.00;5021417;28;20022;-82
2021/03/19 05:40:38;;;;;;;3.75;2.53;;;;;;;23.32;34.64;94547.09;5036532;28;20033;-72
2021/03/19 05:43:21;;;;;;;3.30;2.25;;;;;;;23.49;34.54;94558.44;5023402;28;20144;-75
2021/03/19 05:45:59;;;;;;;3.55;2.50;;;;;;;23.60;34.08;94556.28;5019099;28;20026;-74
2021/03/19 05:48:26;;;;;;;3.38;2.63;;;;;;;23.71;34.26;94558.13;4994851;28;20025;-75
2021/03/19 05:50:51;;;;;;;3.58;2.60;;;;;;;23.46;33.93;94508.44;4984896;28;20108;-75
2021/03/19 05:53:22;;;;;;;3.42;2.58;;;;;;;23.47;33.42;94488.13;5025904;28;20041;-75
2021/03/19 05:55:48;;;;;;;3.28;2.40;;;;;;;23.79;33.57;94528.97;5010536;28;20108;-75
2021/03/19 05:58:26;;;;;;;3.25;2.40;;;;;;;23.81;33.36;94523.72;5031161;28;20032;-75
2021/03/19 06:00:58;;;;;;;3.15;2.40;;;;;;;24.11;33.25;94561.09;5015378;28;20112;-77
2021/03/19 06:03:24;;;;;;;3.60;2.92;;;;;;;24.22;33.52;94555.41;5050738;28;20111;-79
2021/03/19 06:05:55;;;;;;;3.20;2.40;;;;;;;24.32;32.81;94559.19;5051030;28;20036;-80
2021/03/19 06:08:30;;;;;;;2.72;2.33;;;;;;;24.39;33.15;94558.56;5044832;28;20502;-81
2021/03/19 06:11:05;;;;;;;3.60;2.65;;;;;;;24.17;32.67;94509.88;5026882;28;20124;-82
2021/03/19 06:13:41;;;;;;;3.53;2.42;;;;;;;24.59;32.82;94560.66;5044483;28;20132;-79
2021/03/19 06:16:37;;;;;;;3.38;2.30;;;;;;;24.65;32.61;94563.97;5010235;28;20021;-83
2021/03/19 06:19:05;;;;;;;4.90;2.53;;;;;;;24.75;32.37;94565.03;5008000;28;20303;-83
2021/03/19 06:21:35;;;;;;;4.32;2.78;;;;;;;24.81;32.64;94560.91;5026610;28;20047;-81
2021/03/19 06:24:24;;;;;;;3.53;2.30;;;;;;;24.86;31.98;94563.53;5021997;28;20029;-81
2021/03/19 06:26:49;;;;;;;3.15;2.38;;;;;;;24.87;32.14;94570.47;4999672;28;20506;-83
2021/03/19 06:29:26;;;;;;;4.88;2.38;;;;;;;24.94;31.99;94572.53;5034341;28;20029;-86
2021/03/19 06:32:17;;;;;;;3.35;2.38;;;;;;;25.01;31.89;94569.19;5037721;28;20036;-81
2021/03/19 06:35:10;;;;;;;3.50;2.20;;;;;;;25.12;31.83;94574.38;5049458;28;20025;-78
2021/03/19 06:37:42;;;;;;;3.38;2.55;;;;;;;25.18;31.77;94577.00;5039344;28;20651;-78
2021/03/19 06:40:07;;;;;;;3.78;2.65;;;;;;;25.19;31.27;94579.22;5014347;28;20108;-78
2021/03/19 06:42:34;;;;;;;3.53;2.50;;;;;;;25.22;31.39;94586.34;5035898;28;20037;-78
2021/03/19 06:45:10;;;;;;;3.78;2.20;;;;;;;25.07;31.79;94553.41;5038586;28;20033;-80
2021/03/19 06:47:47;;;;;;;3.92;2.70;;;;;;;25.19;31.48;94568.28;5048433;28;20089;-79
2021/03/19 06:50:34;;;;;;;3.35;2.38;;;;;;;25.34;31.48;94571.16;5049670;28;20455;-77
2021/03/19 06:53:24;;;;;;;5.10;2.90;;;;;;;25.39;30.31;94581.22;5022936;28;20496;-77
2021/03/19 06:56:12;;;;;;;3.60;2.88;;;;;;;25.47;30.61;94587.47;5051466;28;20036;-92
2021/03/19 06:58:46;;;;;;;4.43;2.53;;;;;;;25.54;31.20;94581.34;5049570;28;20052;-80
2021/03/19 07:01:29;;;;;;;2.50;2.00;;;;;;;25.34;31.62;94560.22;5047937;28;20174;-87
2021/03/19 07:04:32;;;;;;;2.90;2.33;;;;;;;25.61;31.56;94594.38;5033706;28;20021;-87
2021/03/19 07:07:12;;;;;;;3.45;2.63;;;;;;;25.62;31.37;94593.84;5047224;28;20021;-86
2021/03/19 07:10:06;;;;;;;4.10;2.50;;;;;;;25.64;31.54;94590.56;5043841;28;20044;-85
2021/03/19 07:12:46;;;;;;;4.05;2.58;;;;;;;25.75;31.26;94595.78;5012132;28;20029;-81
2021/03/19 07:15:43;;;;;;;3.20;2.33;;;;;;;25.82;30.84;94591.09;5031999;28;20036;-80
2021/03/19 07:18:16;;;;;;;3.55;2.60;;;;;;;25.81;31.17;94589.66;5030556;28;20033;-81
2021/03/19 07:20:46;;;;;;;4.68;2.42;;;;;;;25.94;31.07;94597.78;5038108;28;20104;-88
2021/03/19 07:23:22;;;;;;;3.38;2.67;;;;;;;26.00;30.99;94594.91;5032053;28;20035;-79
2021/03/19 07:26:12;;;;;;;3.13;2.60;;;;;;;26.02;30.73;94598.56;5050953;28;20079;-76
2021/03/19 07:29:03;;;;;;;2.85;2.20;;;;;;;26.03;31.06;94591.81;5034276;28;20036;-88
2021/03/19 07:31:52;;;;;;;3.15;2.10;;;;;;;26.10;30.73;94588.41;5029693;28;20328;-74
2021/03/19 07:34:32;;;;;;;5.13;2.25;;;;;;;26.11;30.89;94589.84;5034905;28;20551;-79
2021/03/19 07:37:25;;;;;;;4.05;2.80;;;;;;;26.11;30.83;94595.31;5028997;28;20389;-79
2021/03/19 07:40:08;;;;;;;2.92;2.22;;;;;;;26.16;30.71;94589.00;5046037;28;20036;-80
2021/03/19 07:42:42;;;;;;;4.07;2.28;;;;;;;26.13;30.71;94592.81;5047755;28;20033;-79
2021/03/19 07:45:37;;;;;;;3.17;2.22;;;;;;;26.11;30.75;94600.81;5046614;28;20485;-78
2021/03/19 07:48:15;;;;;;;3.35;2.40;;;;;;;26.05;30.50;94589.28;5033781;28;20513;-78
2021/03/19 07:50:41;;;;;;;2.97;2.22;;;;;;;25.99;31.01;94588.69;5036982;28;20028;-80
2021/03/19 07:53:09;;;;;;;3.10;2.20;;;;;;;25.90;31.29;94589.19;5043444;28;20033;-78
2021/03/19 07:55:59;;;;;;;3.20;2.40;;;;;;;25.90;31.55;94585.69;5046936;28;20032;-79
2021/03/19 07:58:46;;;;;;;4.03;2.80;;;;;;;25.64;31.45;94561.25;5020319;28;20046;-80
2021/03/19 08:01:19;;;;;;;4.25;2.30;;;;;;;25.79;31.76;94586.69;5049137;28;20037;-80
2021/03/19 08:03:46;;;;;;;3.92;2.58;;;;;;;25.73;31.67;94581.94;5035746;28;20017;-79
2021/03/19 08:06:14;;;;;;;3.88;2.60;;;;;;;25.71;31.58;94573.50;5014631;28;20039;-79
2021/03/19 08:08:46;;;;;;;4.72;2.40;;;;;;;25.62;31.54;94571.22;5027488;28;20091;-78
2021/03/19 08:11:33;;;;;;;3.80;2.53;;;;;;;25.65;31.80;94600.25;5029119;28;20051;-78
2021/03/19 08:14:04;;;;;;;3.53;2.80;;;;;;;25.55;32.14;94589.03;5021913;28;20025;-70
2021/03/19 08:16:41;;;;;;;3.17;2.47;;;;;;;25.48;32.48;94591.69;5033291;28;20191;-70
2021/03/19 08:19:44;;;;;;;4.97;3.00;;;;;;;25.42;32.72;94591.09;5011922;28;20026;-70
2021/03/19 08:22:28;;;;;;;4.85;2.35;;;;;;;25.36;33.00;94579.53;5022676;28;20124;-69
2021/03/19 08:24:55;;;;;;;3.42;2.38;;;;;;;25.29;32.44;94596.63;5011704;28;20022;-70
2021/03/19 08:27:35;;;;;;;3.63;2.65;;;;;;;25.24;32.81;94581.06;5014151;28;20033;-70
2021/03/19 08:30:07;;;;;;;4.47;2.40;;;;;;;25.22;32.88;94580.88;5013882;28;20036;-70
2021/03/19 08:32:36;;;;;;;4.22;2.63;;;;;;;24.82;32.49;94530.31;5014761;28;20057;-70
2021/03/19 08:35:22;;;;;;;3.63;2.40;;;;;;;25.10;32.93;94576.94;5011354;28;20521;-70
2021/03/19 08:38:18;;;;;;;3.67;2.50;;;;;;;25.04;32.85;94581.78;5013549;28;20537;-70
2021/03/19 08:40:49;;;;;;;4.68;2.38;;;;;;;25.00;32.76;94573.16;5027559;28;20521;-70
2021/03/19 08:43:37;;;;;;;4.38;2.80;;;;;;;24.93;32.87;94576.53;5014592;28;20067;-70
2021/03/19 08:46:18;;;;;;;3.92;2.50;;;;;;;24.94;32.40;94580.00;5031290;28;20509;-70
2021/03/19 08:48:56;;;;;;;3.70;2.45;;;;;;;24.53;32.57;94521.81;5012961;28;20454;-71
2021/03/19 08:51:23;;;;;;;4.22;3.00;;;;;;;24.86;33.04;94579.19;5008004;28;20034;-70
2021/03/19 08:54:12;;;;;;;3.78;2.33;;;;;;;24.79;33.01;94568.16;5011570;28;20034;-71
2021/03/19 08:56:39;;;;;;;3.92;2.72;;;;;;;24.77;32.85;94576.13;5011535;28;20063;-71
2021/03/19 08:59:04;;;;;;;3.72;2.75;;;;;;;24.67;33.21;94577.84;5017996;28;20021;-71
2021/03/19 09:01:52;;;;;;;4.13;2.60;;;;;;;24.68;32.91;94577.31;5028267;28;20026;-71
2021/03/19 09:04:19;;;;;;;3.42;2.65;;;;;;;24.63;32.99;94569.25;5015646;28;20029;-70
2021/03/19 09:07:28;;;;;;;5.22;2.72;;;;;;;24.63;32.99;94566.50;5016607;28;20056;-71
2021/03/19 09:09:56;;;;;;;3.78;2.53;;;;;;;24.58;33.03;94567.38;5018192;28;20041;-71
2021/03/19 09:12:32;;;;;;;3.45;2.42;;;;;;;24.54;33.30;94556.78;5017735;28;20106;-71
2021/03/19 09:15:16;;;;;;;4.68;2.67;;;;;;;24.54;33.16;94558.75;5013756;28;20021;-71
2021/03/19 09:17:49;;;;;;;3.53;2.45;;;;;;;24.51;33.57;94554.34;5038402;28;20476;-71
2021/03/19 09:20:36;;;;;;;3.85;2.58;;;;;;;24.48;33.31;94555.41;5016815;28;20565;-69
2021/03/19 09:23:22;;;;;;;3.88;2.30;;;;;;;24.42;33.87;94558.25;5033551;28;20036;-69
2021/03/19 09:25:51;;;;;;;4.90;2.50;;;;;;;24.42;34.04;94562.97;5045485;28;20086;-68
2021/03/19 09:28:24;;;;;;;3.63;2.83;;;;;;;24.38;34.01;94551.66;5045806;28;20496;-69
2021/03/19 09:31:03;;;;;;;4.45;2.53;;;;;;;24.38;34.04;94562.56;5033425;28;20480;-69
2021/03/19 09:33:44;;;;;;;4.43;2.80;;;;;;;24.36;34.22;94554.16;5017832;28;20453;-69
2021/03/19 09:36:47;;;;;;;4.38;2.63;;;;;;;24.33;34.10;94555.22;5038788;28;20059;-69
2021/03/19 09:39:52;;;;;;;3.08;2.47;;;;;;;24.31;33.88;94557.72;5043325;28;20084;-68
2021/03/19 09:42:17;;;;;;;3.75;2.60;;;;;;;24.31;33.98;94552.25;5032912;28;20041;-69
2021/03/19 09:44:43;;;;;;;4.28;2.78;;;;;;;24.26;33.95;94549.63;5030443;28;20148;-69
2021/03/19 09:47:09;;;;;;;3.40;2.50;;;;;;;24.22;33.87;94549.94;5026987;28;20104;-69
2021/03/19 09:49:34;;;;;;;3.88;2.83;;;;;;;24.20;33.79;94547.03;5035654;28;20052;-69
2021/03/19 09:52:11;;;;;;;5.03;2.65;;;;;;;24.03;33.85;94522.03;5043195;28;20524;-78
2021/03/19 09:54:37;;;;;;;4.72;2.88;;;;;;;24.24;33.53;94550.16;5041634;28;20077;-78
2021/03/19 09:57:22;;;;;;;3.88;2.90;;;;;;;24.21;33.68;94536.84;5039543;28;20021;-78
2021/03/19 10:00:07;;;;;;;4.82;2.75;;;;;;;24.18;33.71;94544.06;5040410;28;20036;-78
2021/03/19 10:02:39;;;;;;;4.72;2.70;;;;;;;24.17;33.84;94556.25;5036674;28;20084;-79
2021/03/19 10:05:21;;;;;;;4.80;2.53;;;;;;;23.90;33.82;94511.13;5049245;28;20030;-78
2021/03/19 10:07:57;;;;;;;3.97;2.97;;;;;;;24.13;33.92;94544.19;5028773;28;20094;-78
2021/03/19 10:10:33;;;;;;;3.45;2.92;;;;;;;24.11;34.24;94544.72;5031348;28;20053;-78
2021/03/19 10:13:16;;;;;;;4.15;2.78;;;;;;;24.10;34.04;94543.22;5014177;28;20029;-77
2021/03/19 10:15:45;;;;;;;3.60;2.70;;;;;;;24.10;33.78;94547.97;5030575;28;20469;-78
2021/03/19 10:18:36;;;;;;;5.63;2.97;;;;;;;23.89;34.14;94523.31;5005564;28;20115;-78
2021/03/19 10:21:11;;;;;;;5.68;3.00;;;;;;;24.07;33.86;94549.75;5019266;28;20025;-78
2021/03/19 10:23:41;;;;;;;3.63;3.00;;;;;;;24.09;33.81;94560.84;5034128;28;20032;-77
2021/03/19 10:26:21;;;;;;;4.20;2.80;;;;;;;24.10;34.11;94554.16;5051384;28;20036;-77
2021/03/19 10:28:49;;;;;;;3.40;2.58;;;;;;;23.65;33.96;94486.59;5051162;28;20029;-79
2021/03/19 10:31:19;;;;;;;4.20;3.05;;;;;;;24.11;34.03;94550.16;5018843;28;20107;-78
2021/03/19 10:33:44;;;;;;;5.55;3.08;;;;;;;24.11;33.74;94550.16;5025552;28;20040;-79
2021/03/19 10:36:20;;;;;;;4.78;3.22;;;;;;;23.95;33.62;94537.56;5062995;28;20555;-79
2021/03/19 10:38:57;;;;;;;3.83;2.80;;;;;;;24.10;34.14;94548.69;5035317;28;20033;-79
2021/03/19 10:41:54;;;;;;;4.00;2.75;;;;;;;24.10;34.01;94554.16;5043706;28;20040;-79
2021/03/19 10:44:25;;;;;;;37.28;5.93;;;;;;;24.06;33.95;94542.81;5036671;28;20072;-78
2021/03/19 10:46:51;;;;;;;16.45;3.67;;;;;;;24.07;33.82;94547.00;5018035;28;20461;-78
2021/03/19 10:49:21;;;;;;;14.38;3.60;;;;;;;24.07;34.09;94538.81;5046755;28;20059;-79
2021/03/19 10:52:01;;;;;;;12.52;3.60;;;;;;;24.07;34.26;94527.91;5035431;28;20028;-78
2021/03/19 10:54:33;;;;;;;10.25;3.50;;;;;;;24.06;34.31;94528.44;5033111;28;20032;-79
2021/03/19 10:57:12;;;;;;;8.98;3.28;;;;;;;24.09;34.70;94533.56;5050624;28;20033;-79
2021/03/19 10:59:38;;;;;;;9.07;3.25;;;;;;;24.13;34.17;94520.38;5035230;28;20029;-78
2021/03/19 11:02:14;;;;;;;6.47;3.00;;;;;;;24.15;34.20;94520.56;5051621;28;20025;-77
2021/03/19 11:04:48;;;;;;;9.13;3.45;;;;;;;24.22;34.55;94511.75;5047818;28;20094;-78
2021/03/19 11:07:38;;;;;;;7.07;3.28;;;;;;;24.28;34.18;94525.28;5019969;28;20020;-79
2021/03/19 11:10:07;;;;;;;8.63;3.20;;;;;;;24.35;34.31;94525.41;5051473;28;20057;-77
2021/03/19 11:12:34;;;;;;;6.57;3.00;;;;;;;24.40;34.54;94527.28;5054985;28;20029;-77
2021/03/19 11:15:00;;;;;;;8.98;3.45;;;;;;;24.40;34.43;94516.38;5052860;28;20120;-76
2021/03/19 11:17:25;;;;;;;9.90;3.83;;;;;;;24.59;34.13;94522.44;5051476;28;20083;-75
2021/03/19 11:19:59;;;;;;;9.93;3.22;;;;;;;24.63;33.94;94514.63;5051168;28;20040;-77
2021/03/19 11:22:35;;;;;;;8.50;3.10;;;;;;;24.78;33.75;94517.53;5037847;28;20089;-75
2021/03/19 11:25:46;;;;;;;4.80;2.97;;;;;;;24.89;33.82;94518.03;5043176;28;20041;-71
2021/03/19 11:28:34;;;;;;;7.53;3.35;;;;;;;24.97;33.51;94519.56;5038172;28;20061;-70
2021/03/19 11:31:13;;;;;;;4.80;3.00;;;;;;;25.07;33.58;94512.41;5042477;28;20036;-70
2021/03/19 11:34:12;;;;;;;4.32;2.60;;;;;;;24.87;33.04;94477.59;5035618;28;21574;-71
2021/03/19 11:36:57;;;;;;;6.93;3.17;;;;;;;25.27;32.92;94519.88;5031289;28;20458;-71
2021/03/19 11:39:32;;;;;;;5.28;3.05;;;;;;;25.35;33.05;94521.41;5018320;28;20061;-71
2021/03/19 11:41:57;;;;;;;6.00;3.15;;;;;;;25.49;32.63;94519.34;5016662;28;20036;-71
2021/03/19 11:44:23;;;;;;;9.50;4.05;;;;;;;25.54;32.67;94504.78;5035949;28;20382;-71
2021/03/19 11:46:48;;;;;;;7.55;3.50;;;;;;;25.65;32.41;94520.94;5014108;28;20497;-73
2021/03/19 11:49:14;;;;;;;7.13;3.53;;;;;;;25.72;32.42;94509.34;5017997;28;20021;-72
2021/03/19 11:51:40;;;;;;;5.07;3.00;;;;;;;25.50;32.19;94471.56;5014472;28;20083;-72
2021/03/19 11:54:08;;;;;;;5.10;3.08;;;;;;;25.84;32.24;94506.50;5035705;28;20018;-71
2021/03/19 11:56:34;;;;;;;4.72;3.08;;;;;;;25.77;31.79;94472.88;5040633;28;20029;-71
2021/03/19 11:58:59;;;;;;;6.60;2.90;;;;;;;26.06;31.65;94500.44;5037394;28;20013;-71
2021/03/19 12:01:27;;;;;;;7.78;3.20;;;;;;;26.17;31.69;94504.88;5034672;28;20514;-71
2021/03/19 12:03:53;;;;;;;5.47;2.90;;;;;;;26.22;31.40;94491.03;5005153;28;20042;-88
2021/03/19 12:06:21;;;;;;;5.03;3.15;;;;;;;26.36;31.39;94500.63;5032260;28;20548;-79